Saint Louis, Canada
Current Conditions -  °F | °C
As of 1:00 PM on Friday 28 Nov 2014 (Local Time) from CYPA Reporting Station
Light Snow Light Snow  
Wind Chill: -24°   Ceiling: 900
Heat Index: -2°   Visibility: 0.75mi
Dew Point: -8°   Wind: 17mph
Humidity: 78%   Direction: 70°ENE
Pressure: 29.79"   Gusts: NA
Location:  52.92°N, 105.8°W
Report Text: CYPA 281900Z 07015KT 3/4SM R08/3500FT/U -SN DRSN VV009 M19/M22 A2979 RMK SN8 SLP130
Loading
Personal Weather Stations






























Interactive Weather Map New forecast layout! Learn more

10-Day Weather Forecast

Advertisements
Track Severe Weather on mobile